createdAt,value
2022-07-28T00:00:50.345Z,58
2022-07-28T00:02:50.721Z,58
2022-07-28T00:04:50.163Z,58
2022-07-28T00:06:50.324Z,58
2022-07-28T00:08:50.309Z,58
2022-07-28T00:10:50.151Z,58
2022-07-28T00:12:50.174Z,58
2022-07-28T00:14:50.148Z,58
2022-07-28T00:16:50.846Z,58
2022-07-28T00:18:50.843Z,58
2022-07-28T00:20:50.775Z,58
2022-07-28T00:22:50.825Z,58
2022-07-28T00:24:51.253Z,58
2022-07-28T00:26:50.356Z,58
2022-07-28T00:28:50.534Z,58
2022-07-28T00:30:50.761Z,58
2022-07-28T00:32:50.912Z,58
2022-07-28T00:34:54.814Z,58
2022-07-28T00:36:50.488Z,58
2022-07-28T00:38:53.501Z,59
2022-07-28T00:40:50.605Z,59
2022-07-28T00:42:52.732Z,59
2022-07-28T00:44:50.500Z,59
2022-07-28T00:46:51.301Z,59
2022-07-28T00:48:50.771Z,59
2022-07-28T00:50:50.547Z,59
2022-07-28T00:52:50.395Z,59
2022-07-28T00:54:50.407Z,59
2022-07-28T00:56:50.662Z,59
2022-07-28T00:58:50.690Z,60
2022-07-28T01:00:50.841Z,60
2022-07-28T01:02:51.619Z,60
2022-07-28T01:04:51.001Z,60
2022-07-28T01:06:50.114Z,60
2022-07-28T01:08:50.988Z,60
2022-07-28T01:10:51.311Z,60
2022-07-28T01:12:51.067Z,60
2022-07-28T01:14:51.018Z,60
2022-07-28T01:16:50.191Z,61
2022-07-28T01:18:51.022Z,61
2022-07-28T01:20:51.033Z,60
2022-07-28T01:22:50.867Z,60
2022-07-28T01:24:50.816Z,60
2022-07-28T01:26:51.060Z,60
2022-07-28T01:28:50.935Z,60
2022-07-28T01:30:51.153Z,60
2022-07-28T01:32:50.155Z,60
2022-07-28T01:34:50.434Z,60
2022-07-28T01:36:50.522Z,60
2022-07-28T01:38:50.445Z,60
2022-07-28T01:40:51.074Z,60
2022-07-28T01:42:51.002Z,60
2022-07-28T01:44:50.222Z,60
2022-07-28T01:46:50.855Z,60
2022-07-28T01:48:51.489Z,60
2022-07-28T01:50:50.530Z,60
2022-07-28T01:52:50.672Z,60
2022-07-28T01:54:50.737Z,61
2022-07-28T01:56:50.931Z,61
2022-07-28T01:58:50.988Z,61
2022-07-28T02:00:51.330Z,61
2022-07-28T02:02:50.912Z,61
2022-07-28T02:04:50.571Z,61
2022-07-28T02:06:50.886Z,61
2022-07-28T02:08:50.390Z,61
2022-07-28T02:10:50.468Z,61
2022-07-28T02:12:50.623Z,61
2022-07-28T02:14:50.713Z,61
2022-07-28T02:16:51.044Z,61
2022-07-28T02:18:51.065Z,61
2022-07-28T02:20:51.021Z,62
2022-07-28T02:22:52.647Z,62
2022-07-28T02:24:50.503Z,62
2022-07-28T02:26:50.878Z,62
2022-07-28T02:28:50.860Z,62
2022-07-28T02:30:51.350Z,62
2022-07-28T02:32:50.933Z,62
2022-07-28T02:34:52.071Z,62
2022-07-28T02:36:50.395Z,62
2022-07-28T02:38:50.531Z,62
2022-07-28T02:40:50.387Z,62
2022-07-28T02:42:50.458Z,62
2022-07-28T02:44:50.277Z,62
2022-07-28T02:46:50.554Z,62
2022-07-28T02:48:50.916Z,62
2022-07-28T02:50:50.860Z,62
2022-07-28T02:52:50.746Z,62
2022-07-28T02:54:50.866Z,62
2022-07-28T02:56:54.568Z,62
2022-07-28T02:58:50.679Z,62
2022-07-28T03:00:50.829Z,62
2022-07-28T03:02:50.998Z,62
2022-07-28T03:04:50.979Z,62
2022-07-28T03:06:50.805Z,62
2022-07-28T03:08:50.820Z,62
2022-07-28T03:10:50.972Z,62
2022-07-28T03:12:51.203Z,62
2022-07-28T03:14:51.130Z,62
2022-07-28T03:16:56.522Z,62
2022-07-28T03:18:50.449Z,62
2022-07-28T03:20:50.506Z,62
2022-07-28T03:22:50.537Z,62
2022-07-28T03:24:50.578Z,62
2022-07-28T03:26:50.869Z,62
2022-07-28T03:28:50.798Z,62
2022-07-28T03:30:51.043Z,63
2022-07-28T03:32:50.064Z,62
2022-07-28T03:34:50.319Z,62
2022-07-28T03:36:50.429Z,62
2022-07-28T03:38:50.469Z,63
2022-07-28T03:40:50.491Z,62
2022-07-28T03:42:50.497Z,62
2022-07-28T03:44:50.551Z,63
2022-07-28T03:46:50.946Z,63
2022-07-28T03:48:51.300Z,63
2022-07-28T03:50:50.297Z,63
2022-07-28T03:52:50.521Z,63
2022-07-28T03:54:50.368Z,63
2022-07-28T03:56:50.852Z,63
2022-07-28T03:58:50.692Z,63
2022-07-28T04:00:51.195Z,63
2022-07-28T04:02:50.699Z,63
2022-07-28T04:04:50.524Z,63
2022-07-28T04:06:50.721Z,63
2022-07-28T04:08:50.711Z,63
2022-07-28T04:10:50.784Z,63
2022-07-28T04:12:50.894Z,63
2022-07-28T04:14:50.754Z,63
2022-07-28T04:16:51.323Z,63
2022-07-28T04:18:50.378Z,63
2022-07-28T04:20:50.141Z,63
2022-07-28T04:22:50.427Z,63
2022-07-28T04:24:50.389Z,63
2022-07-28T04:26:50.828Z,64
2022-07-28T04:28:50.623Z,64
2022-07-28T04:30:50.969Z,63
2022-07-28T04:32:51.049Z,63
2022-07-28T04:34:50.235Z,63
2022-07-28T04:36:50.476Z,63
2022-07-28T04:38:50.488Z,64
2022-07-28T04:40:50.713Z,65
2022-07-28T04:42:50.724Z,65
2022-07-28T04:44:50.846Z,65
2022-07-28T04:46:51.038Z,65
2022-07-28T04:48:50.443Z,65
2022-07-28T04:50:50.303Z,65
2022-07-28T04:52:50.386Z,65
2022-07-28T04:54:50.218Z,65
2022-07-28T04:56:50.546Z,65
2022-07-28T04:58:50.552Z,65
2022-07-28T05:00:51.648Z,65
2022-07-28T05:02:50.514Z,65
2022-07-28T05:04:51.310Z,64
2022-07-28T05:06:50.816Z,63
2022-07-28T05:08:50.834Z,63
2022-07-28T05:10:50.731Z,63
2022-07-28T05:12:50.701Z,62
2022-07-28T05:14:50.546Z,62
2022-07-28T05:16:51.207Z,61
2022-07-28T05:18:51.783Z,61
2022-07-28T05:20:50.644Z,61
2022-07-28T05:22:50.609Z,61
2022-07-28T05:24:51.607Z,60
2022-07-28T05:26:51.071Z,59
2022-07-28T05:28:50.051Z,59
2022-07-28T05:30:50.850Z,58
2022-07-28T05:32:50.077Z,57
2022-07-28T05:34:50.518Z,57
2022-07-28T05:36:50.580Z,55
2022-07-28T05:38:50.528Z,54
2022-07-28T05:40:50.396Z,54
2022-07-28T05:42:50.346Z,53
2022-07-28T05:44:50.276Z,53
2022-07-28T05:46:50.447Z,52
2022-07-28T05:48:50.825Z,52
2022-07-28T05:50:50.083Z,52
2022-07-28T05:52:50.937Z,52
2022-07-28T05:54:50.940Z,52
2022-07-28T05:56:50.966Z,52
2022-07-28T05:58:50.801Z,52
2022-07-28T06:00:51.088Z,52
2022-07-28T06:02:50.541Z,52
2022-07-28T06:04:50.751Z,52
2022-07-28T06:06:50.120Z,53
2022-07-28T06:08:52.006Z,53
2022-07-28T06:10:50.504Z,53
2022-07-28T06:12:50.463Z,54
2022-07-28T06:14:50.353Z,54
2022-07-28T06:16:52.131Z,54
2022-07-28T06:18:51.036Z,53
2022-07-28T06:20:51.063Z,53
2022-07-28T06:22:50.905Z,53
2022-07-28T06:24:50.854Z,53
2022-07-28T06:26:50.148Z,53
2022-07-28T06:28:50.237Z,53
2022-07-28T06:30:50.697Z,53
2022-07-28T06:32:50.730Z,53
2022-07-28T06:34:50.200Z,53
2022-07-28T06:36:50.534Z,53
2022-07-28T06:38:50.526Z,53
2022-07-28T06:40:50.331Z,53
2022-07-28T06:42:50.806Z,53
2022-07-28T06:45:00.637Z,52
2022-07-28T06:46:51.334Z,52
2022-07-28T06:48:50.741Z,52
2022-07-28T06:50:50.748Z,52
2022-07-28T06:52:50.803Z,52
2022-07-28T06:54:52.362Z,51
2022-07-28T06:56:50.380Z,51
2022-07-28T06:58:50.431Z,52
2022-07-28T07:00:50.921Z,52
2022-07-28T07:02:51.007Z,50
2022-07-28T07:04:50.230Z,51
2022-07-28T07:06:50.422Z,50
2022-07-28T07:08:50.264Z,50
2022-07-28T07:10:50.314Z,50
2022-07-28T07:12:50.192Z,50
2022-07-28T07:14:50.067Z,50
2022-07-28T07:16:50.766Z,50
2022-07-28T07:18:50.959Z,50
2022-07-28T07:20:51.009Z,49
2022-07-28T07:22:51.068Z,49
2022-07-28T07:24:58.282Z,49
2022-07-28T07:26:50.579Z,49
2022-07-28T07:28:50.564Z,49
2022-07-28T07:30:50.399Z,48
2022-07-28T07:32:50.538Z,48
2022-07-28T07:34:51.065Z,49
2022-07-28T07:36:50.539Z,49
2022-07-28T07:38:50.432Z,48
2022-07-28T07:40:50.425Z,48
2022-07-28T07:42:50.384Z,48
2022-07-28T07:44:51.029Z,48
2022-07-28T07:46:50.801Z,48
2022-07-28T07:48:51.341Z,48
2022-07-28T07:50:54.955Z,48
2022-07-28T07:52:51.054Z,48
2022-07-28T07:54:50.941Z,48
2022-07-28T07:56:50.145Z,48
2022-07-28T07:58:57.677Z,48
2022-07-28T08:00:50.793Z,48
2022-07-28T08:02:50.955Z,48
2022-07-28T08:04:51.455Z,47
2022-07-28T08:06:51.779Z,47
2022-07-28T08:08:51.565Z,47
2022-07-28T08:10:50.485Z,47
2022-07-28T08:12:50.426Z,47
2022-07-28T08:14:50.455Z,48
2022-07-28T08:16:50.324Z,47
2022-07-28T08:18:50.230Z,47
2022-07-28T08:20:50.174Z,47
2022-07-28T08:22:50.150Z,47
2022-07-28T08:24:50.195Z,47
2022-07-28T08:26:50.501Z,47
2022-07-28T08:28:50.773Z,47
2022-07-28T08:30:51.118Z,46
2022-07-28T08:32:57.832Z,46
2022-07-28T08:35:10.031Z,46
2022-07-28T08:36:50.767Z,46
2022-07-28T08:38:50.614Z,46
2022-07-28T08:40:50.614Z,46
2022-07-28T08:42:50.349Z,46
2022-07-28T08:44:50.208Z,46
2022-07-28T08:46:51.188Z,46
2022-07-28T08:48:50.732Z,45
2022-07-28T08:50:50.781Z,45
2022-07-28T08:52:50.912Z,45
2022-07-28T08:54:50.629Z,45
2022-07-28T08:56:50.772Z,45
2022-07-28T08:58:50.712Z,45
2022-07-28T09:00:50.761Z,45
2022-07-28T09:02:53.334Z,45
2022-07-28T09:04:50.141Z,45
2022-07-28T09:06:50.245Z,45
2022-07-28T09:08:51.010Z,44
2022-07-28T09:10:51.034Z,44
2022-07-28T09:12:50.125Z,44
2022-07-28T09:14:50.994Z,44
2022-07-28T09:16:50.149Z,44
2022-07-28T09:18:50.063Z,44
2022-07-28T09:20:50.888Z,43
2022-07-28T09:22:50.818Z,43
2022-07-28T09:24:51.234Z,42
2022-07-28T09:26:50.687Z,42
2022-07-28T09:28:50.601Z,42
2022-07-28T09:30:55.427Z,42
2022-07-28T09:32:50.471Z,42
2022-07-28T09:34:52.531Z,42
2022-07-28T09:36:50.705Z,42
2022-07-28T09:38:50.523Z,42
2022-07-28T09:40:50.577Z,42
2022-07-28T09:42:50.471Z,42
2022-07-28T09:45:24.478Z,42
2022-07-28T09:46:51.963Z,42
2022-07-28T09:48:52.479Z,41
2022-07-28T09:50:50.617Z,41
2022-07-28T09:52:50.588Z,41
2022-07-28T09:54:50.622Z,41
2022-07-28T09:56:50.143Z,41
2022-07-28T09:58:50.192Z,41
2022-07-28T10:00:50.155Z,41
2022-07-28T10:02:51.320Z,41
2022-07-28T10:04:50.876Z,41
2022-07-28T10:06:50.066Z,40
2022-07-28T10:08:50.972Z,41
2022-07-28T10:10:50.988Z,41
2022-07-28T10:12:51.054Z,40
2022-07-28T10:14:50.330Z,40
2022-07-28T10:16:50.519Z,40
2022-07-28T10:18:50.494Z,39
2022-07-28T10:20:50.500Z,39
2022-07-28T10:22:50.230Z,39
2022-07-28T10:24:50.947Z,39
2022-07-28T10:26:50.376Z,39
2022-07-28T10:28:50.351Z,39
2022-07-28T10:30:50.485Z,39
2022-07-28T10:32:50.503Z,39
2022-07-28T10:34:50.771Z,39
2022-07-28T10:36:50.958Z,38
2022-07-28T10:38:50.951Z,38
2022-07-28T10:40:50.072Z,38
2022-07-28T10:42:50.930Z,39
2022-07-28T10:44:50.736Z,38
2022-07-28T10:46:50.626Z,38
2022-07-28T10:48:52.445Z,38
2022-07-28T10:50:50.531Z,38
2022-07-28T10:52:59.799Z,38
2022-07-28T10:54:50.674Z,38
2022-07-28T10:56:50.738Z,38
2022-07-28T10:58:50.858Z,38
2022-07-28T11:01:08.681Z,38
2022-07-28T11:02:52.388Z,38
2022-07-28T11:04:50.932Z,38
2022-07-28T11:06:50.141Z,38
2022-07-28T11:08:51.037Z,37
2022-07-28T11:10:50.771Z,37
2022-07-28T11:12:50.722Z,37
2022-07-28T11:14:52.310Z,37
2022-07-28T11:16:51.001Z,37
2022-07-28T11:18:50.802Z,37
2022-07-28T11:20:50.835Z,36
2022-07-28T11:22:50.790Z,37
2022-07-28T11:24:51.072Z,36
2022-07-28T11:26:50.293Z,36
2022-07-28T11:28:50.335Z,37
2022-07-28T11:30:50.603Z,36
2022-07-28T11:32:50.631Z,36
2022-07-28T11:34:50.881Z,36
2022-07-28T11:36:50.181Z,36
2022-07-28T11:38:50.934Z,36
2022-07-28T11:40:50.942Z,36
2022-07-28T11:42:50.099Z,36
2022-07-28T11:44:52.197Z,36
2022-07-28T11:46:54.159Z,36
2022-07-28T11:48:51.212Z,36
2022-07-28T11:50:50.267Z,36
2022-07-28T11:52:50.221Z,36
2022-07-28T11:54:51.051Z,36
2022-07-28T11:56:50.419Z,36
2022-07-28T11:58:50.337Z,36
2022-07-28T12:00:50.576Z,36
2022-07-28T12:02:50.951Z,36
2022-07-28T12:04:51.155Z,36
2022-07-28T12:06:52.137Z,35
2022-07-28T12:08:50.293Z,35
2022-07-28T12:10:57.302Z,35
2022-07-28T12:12:50.275Z,35
2022-07-28T12:14:50.126Z,36
2022-07-28T12:16:50.842Z,35
2022-07-28T12:18:50.773Z,35
2022-07-28T12:20:51.434Z,35
2022-07-28T12:22:51.338Z,35
2022-07-28T12:24:50.756Z,35
2022-07-28T12:26:51.150Z,35
2022-07-28T12:28:50.266Z,35
2022-07-28T12:30:51.045Z,35
2022-07-28T12:32:50.922Z,35
2022-07-28T12:34:50.377Z,35
2022-07-28T12:36:50.498Z,35
2022-07-28T12:38:50.489Z,35
2022-07-28T12:40:50.326Z,35
2022-07-28T12:42:54.253Z,34
2022-07-28T12:44:50.231Z,34
2022-07-28T12:46:50.427Z,34
2022-07-28T12:48:50.635Z,34
2022-07-28T12:50:50.768Z,34
2022-07-28T12:52:50.830Z,34
2022-07-28T12:54:57.182Z,34
2022-07-28T12:56:50.455Z,33
2022-07-28T12:58:50.332Z,34
2022-07-28T13:00:50.686Z,34
2022-07-28T13:02:51.123Z,34
2022-07-28T13:04:50.384Z,34
2022-07-28T13:06:50.604Z,34
2022-07-28T13:08:56.347Z,33
2022-07-28T13:10:59.638Z,33
2022-07-28T13:12:50.457Z,33
2022-07-28T13:14:50.451Z,33
2022-07-28T13:16:51.163Z,33
2022-07-28T13:18:50.916Z,33
2022-07-28T13:20:50.869Z,33
2022-07-28T13:22:50.733Z,33
2022-07-28T13:24:50.667Z,33
2022-07-28T13:26:51.025Z,33
2022-07-28T13:28:50.236Z,33
2022-07-28T13:30:50.152Z,33
2022-07-28T13:32:50.774Z,34
2022-07-28T13:34:50.074Z,33
2022-07-28T13:36:50.510Z,33
2022-07-28T13:38:50.344Z,33
2022-07-28T13:40:50.209Z,33
2022-07-28T13:42:57.586Z,33
2022-07-28T13:44:50.372Z,33
2022-07-28T13:46:50.829Z,33
2022-07-28T13:49:01.042Z,33
2022-07-28T13:50:50.119Z,33
2022-07-28T13:52:52.057Z,34
2022-07-28T13:54:51.741Z,33
2022-07-28T13:56:50.857Z,33
2022-07-28T13:58:52.153Z,32
2022-07-28T14:00:50.660Z,32
2022-07-28T14:02:51.105Z,32
2022-07-28T14:04:51.579Z,33
2022-07-28T14:06:50.826Z,33
2022-07-28T14:08:54.304Z,32
2022-07-28T14:10:50.379Z,32
2022-07-28T14:12:51.773Z,32
2022-07-28T14:14:50.690Z,32
2022-07-28T14:16:50.518Z,32
2022-07-28T14:18:50.507Z,32
2022-07-28T14:20:50.713Z,32
2022-07-28T14:22:50.526Z,32
2022-07-28T14:24:50.301Z,32
2022-07-28T14:26:50.482Z,32
2022-07-28T14:28:50.214Z,33
2022-07-28T14:30:50.166Z,32
2022-07-28T14:32:50.870Z,33
2022-07-28T14:34:53.553Z,32
2022-07-28T14:36:51.309Z,32
2022-07-28T14:38:55.306Z,32
2022-07-28T14:40:50.092Z,32
2022-07-28T14:42:50.986Z,32
2022-07-28T14:44:50.920Z,32
2022-07-28T14:46:51.418Z,32
2022-07-28T14:48:50.794Z,32
2022-07-28T14:50:50.629Z,32
2022-07-28T14:52:50.610Z,32
2022-07-28T14:54:50.537Z,31
2022-07-28T14:56:50.096Z,32
2022-07-28T14:58:50.804Z,31
2022-07-28T15:00:50.688Z,31
2022-07-28T15:02:51.095Z,31
2022-07-28T15:04:50.758Z,31
2022-07-28T15:06:50.721Z,31
2022-07-28T15:08:50.755Z,31
2022-07-28T15:10:50.511Z,31
2022-07-28T15:12:50.630Z,31
2022-07-28T15:14:50.517Z,31
2022-07-28T15:16:50.810Z,31
2022-07-28T15:18:50.837Z,31
2022-07-28T15:20:50.870Z,31
2022-07-28T15:22:51.055Z,31
2022-07-28T15:24:50.802Z,31
2022-07-28T15:26:50.071Z,31
2022-07-28T15:28:50.870Z,31
2022-07-28T15:30:50.905Z,31
2022-07-28T15:32:59.751Z,31
2022-07-28T15:34:50.898Z,31
2022-07-28T15:36:50.240Z,31
2022-07-28T15:38:51.538Z,31
2022-07-28T15:40:53.435Z,31
2022-07-28T15:42:50.214Z,31
2022-07-28T15:44:50.183Z,31
2022-07-28T15:46:51.373Z,31
2022-07-28T15:48:50.905Z,31
2022-07-28T15:50:50.821Z,31
2022-07-28T15:52:50.710Z,31
2022-07-28T15:54:50.678Z,32
2022-07-28T15:56:50.686Z,31
2022-07-28T15:58:50.669Z,31
2022-07-28T16:00:50.612Z,31
2022-07-28T16:02:50.974Z,31
2022-07-28T16:04:54.924Z,31
2022-07-28T16:06:50.360Z,32
2022-07-28T16:08:50.368Z,32
2022-07-28T16:10:50.241Z,32
2022-07-28T16:12:50.322Z,31
2022-07-28T16:14:50.078Z,31
2022-07-28T16:16:50.293Z,31
2022-07-28T16:18:50.229Z,31
2022-07-28T16:20:50.111Z,32
2022-07-28T16:22:51.044Z,32
2022-07-28T16:24:51.155Z,32
2022-07-28T16:26:50.367Z,32
2022-07-28T16:28:50.274Z,31
2022-07-28T16:30:50.627Z,31
2022-07-28T16:32:50.361Z,31
2022-07-28T16:34:50.904Z,31
2022-07-28T16:36:50.206Z,31
2022-07-28T16:38:50.098Z,31
2022-07-28T16:40:50.963Z,31
2022-07-28T16:42:50.816Z,31
2022-07-28T16:44:50.551Z,31
2022-07-28T16:46:50.989Z,31
2022-07-28T16:48:51.213Z,31
2022-07-28T16:50:50.499Z,30
2022-07-28T16:52:50.460Z,30
2022-07-28T16:54:50.333Z,30
2022-07-28T16:56:50.660Z,30
2022-07-28T16:58:50.578Z,29
2022-07-28T17:00:50.598Z,30
2022-07-28T17:02:50.456Z,30
2022-07-28T17:04:51.274Z,29
2022-07-28T17:06:50.569Z,29
2022-07-28T17:08:50.681Z,29
2022-07-28T17:10:50.634Z,29
2022-07-28T17:12:50.968Z,29
2022-07-28T17:14:50.075Z,29
2022-07-28T17:16:50.257Z,29
2022-07-28T17:18:50.188Z,29
2022-07-28T17:20:50.147Z,29
2022-07-28T17:22:50.048Z,29
2022-07-28T17:24:51.036Z,29
2022-07-28T17:27:37.055Z,29
2022-07-28T17:28:50.895Z,29
2022-07-28T17:30:50.955Z,29
2022-07-28T17:32:50.639Z,29
2022-07-28T17:34:50.950Z,29
2022-07-28T17:36:50.164Z,29
2022-07-28T17:38:51.062Z,30
2022-07-28T17:40:50.877Z,30
2022-07-28T17:42:50.783Z,30
2022-07-28T17:44:50.584Z,30
2022-07-28T17:46:51.472Z,30
2022-07-28T17:48:50.944Z,31
2022-07-28T17:50:50.959Z,31
2022-07-28T17:52:50.892Z,31
2022-07-28T17:54:50.855Z,31
2022-07-28T17:56:50.859Z,31
2022-07-28T17:58:50.679Z,31
2022-07-28T18:00:50.641Z,32
2022-07-28T18:02:50.966Z,32
2022-07-28T18:04:50.250Z,32
2022-07-28T18:06:50.462Z,32
2022-07-28T18:08:50.606Z,32
2022-07-28T18:10:50.615Z,32
2022-07-28T18:12:50.544Z,32
2022-07-28T18:14:50.464Z,32
2022-07-28T18:16:50.375Z,33
2022-07-28T18:18:50.320Z,33
2022-07-28T18:20:50.061Z,33
2022-07-28T18:22:50.972Z,33
2022-07-28T18:24:50.932Z,33
2022-07-28T18:26:50.293Z,33
2022-07-28T18:28:50.252Z,33
2022-07-28T18:30:50.679Z,33
2022-07-28T18:32:50.496Z,34
2022-07-28T18:34:51.032Z,34
2022-07-28T18:36:51.507Z,34
2022-07-28T18:38:50.454Z,34
2022-07-28T18:40:53.427Z,34
2022-07-28T18:42:50.435Z,34
2022-07-28T18:44:50.416Z,34
2022-07-28T18:46:51.466Z,35
2022-07-28T18:48:57.901Z,35
2022-07-28T18:50:50.880Z,35
2022-07-28T18:52:50.893Z,35
2022-07-28T18:54:50.953Z,35
2022-07-28T18:56:50.152Z,36
2022-07-28T18:58:50.016Z,36
2022-07-28T19:00:51.017Z,36
2022-07-28T19:02:51.637Z,36
2022-07-28T19:04:50.227Z,36
2022-07-28T19:06:50.612Z,37
2022-07-28T19:08:50.426Z,37
2022-07-28T19:10:50.233Z,37
2022-07-28T19:12:50.249Z,36
2022-07-28T19:14:50.214Z,37
2022-07-28T19:16:50.265Z,37
2022-07-28T19:18:50.228Z,37
2022-07-28T19:20:50.162Z,38
2022-07-28T19:22:50.148Z,38
2022-07-28T19:24:50.060Z,37
2022-07-28T19:26:50.176Z,37
2022-07-28T19:28:50.930Z,38
2022-07-28T19:30:51.541Z,38
2022-07-28T19:32:50.395Z,38
2022-07-28T19:34:51.729Z,38
2022-07-28T19:36:51.046Z,38
2022-07-28T19:38:50.071Z,38
2022-07-28T19:40:51.014Z,38
2022-07-28T19:42:50.946Z,38
2022-07-28T19:44:56.629Z,38
2022-07-28T19:46:50.851Z,38
2022-07-28T19:48:51.051Z,39
2022-07-28T19:50:51.797Z,39
2022-07-28T19:52:50.820Z,40
2022-07-28T19:54:51.979Z,41
2022-07-28T19:56:50.283Z,41
2022-07-28T19:58:50.105Z,41
2022-07-28T20:00:50.144Z,40
2022-07-28T20:02:50.596Z,41
2022-07-28T20:04:50.934Z,41
2022-07-28T20:06:56.225Z,41
2022-07-28T20:08:50.119Z,41
2022-07-28T20:10:50.274Z,41
2022-07-28T20:12:51.086Z,41
2022-07-28T20:14:50.065Z,41
2022-07-28T20:16:50.925Z,42
2022-07-28T20:18:50.832Z,42
2022-07-28T20:20:50.733Z,41
2022-07-28T20:22:50.693Z,42
2022-07-28T20:24:50.603Z,42
2022-07-28T20:26:51.063Z,42
2022-07-28T20:28:51.017Z,42
2022-07-28T20:30:51.211Z,43
2022-07-28T20:32:50.166Z,43
2022-07-28T20:34:50.647Z,43
2022-07-28T20:36:50.881Z,42
2022-07-28T20:38:50.658Z,42
2022-07-28T20:40:50.675Z,43
2022-07-28T20:42:53.958Z,43
2022-07-28T20:44:50.784Z,43
2022-07-28T20:46:50.945Z,43
2022-07-28T20:48:51.199Z,45
2022-07-28T20:50:50.050Z,43
2022-07-28T20:52:50.056Z,44
2022-07-28T20:54:55.633Z,43
2022-07-28T20:56:50.909Z,43
2022-07-28T20:58:51.003Z,43
2022-07-28T21:00:51.240Z,44
2022-07-28T21:02:50.733Z,44
2022-07-28T21:04:51.301Z,44
2022-07-28T21:07:04.540Z,44
2022-07-28T21:08:52.085Z,44
2022-07-28T21:10:50.177Z,44
2022-07-28T21:12:50.277Z,46
2022-07-28T21:14:50.316Z,46
2022-07-28T21:16:51.018Z,47
2022-07-28T21:18:50.917Z,46
2022-07-28T21:20:50.772Z,46
2022-07-28T21:22:50.698Z,46
2022-07-28T21:24:56.402Z,46
2022-07-28T21:26:50.805Z,46
2022-07-28T21:28:50.754Z,46
2022-07-28T21:30:50.791Z,46
2022-07-28T21:32:51.028Z,46
2022-07-28T21:34:50.336Z,46
2022-07-28T21:36:50.556Z,46
2022-07-28T21:38:50.549Z,47
2022-07-28T21:40:50.402Z,46
2022-07-28T21:42:50.365Z,46
2022-07-28T21:44:50.494Z,47
2022-07-28T21:46:50.814Z,46
2022-07-28T21:48:51.093Z,46
2022-07-28T21:50:50.122Z,46
2022-07-28T21:52:50.213Z,47
2022-07-28T21:54:50.184Z,46
2022-07-28T21:56:50.298Z,46
2022-07-28T21:58:50.330Z,46
2022-07-28T22:00:50.674Z,46
2022-07-28T22:02:52.416Z,46
2022-07-28T22:04:51.129Z,46
2022-07-28T22:06:50.484Z,46
2022-07-28T22:08:50.470Z,46
2022-07-28T22:10:50.668Z,46
2022-07-28T22:12:50.743Z,46
2022-07-28T22:14:51.005Z,46
2022-07-28T22:16:50.671Z,46
2022-07-28T22:18:50.699Z,46
2022-07-28T22:20:50.737Z,46
2022-07-28T22:22:50.566Z,46
2022-07-28T22:24:50.593Z,46
2022-07-28T22:26:50.632Z,47
2022-07-28T22:28:50.871Z,47
2022-07-28T22:30:50.742Z,47
2022-07-28T22:32:50.567Z,47
2022-07-28T22:34:50.858Z,47
2022-07-28T22:36:50.265Z,47
2022-07-28T22:38:50.252Z,47
2022-07-28T22:40:50.045Z,47
2022-07-28T22:42:50.934Z,47
2022-07-28T22:44:50.845Z,47
2022-07-28T22:46:50.353Z,47
2022-07-28T22:48:50.517Z,47
2022-07-28T22:50:50.347Z,46
2022-07-28T22:52:50.239Z,47
2022-07-28T22:54:50.581Z,47
2022-07-28T22:56:50.635Z,47
2022-07-28T22:58:50.524Z,47
2022-07-28T23:00:52.532Z,47
2022-07-28T23:02:50.595Z,47
2022-07-28T23:04:52.518Z,47
2022-07-28T23:06:50.720Z,47
2022-07-28T23:08:50.716Z,46
2022-07-28T23:10:50.678Z,47
2022-07-28T23:12:50.546Z,47
2022-07-28T23:14:50.400Z,47
2022-07-28T23:16:51.144Z,47
2022-07-28T23:18:50.070Z,47
2022-07-28T23:20:50.110Z,47
2022-07-28T23:22:50.947Z,47
2022-07-28T23:24:50.882Z,47
2022-07-28T23:26:51.016Z,47
2022-07-28T23:28:50.093Z,48
2022-07-28T23:30:52.622Z,47
2022-07-28T23:32:50.496Z,48
2022-07-28T23:34:50.913Z,48
2022-07-28T23:36:50.130Z,47
2022-07-28T23:38:50.114Z,47
2022-07-28T23:40:50.962Z,47
2022-07-28T23:42:50.981Z,47
2022-07-28T23:44:50.765Z,47
2022-07-28T23:46:51.320Z,48
2022-07-28T23:48:50.630Z,47
2022-07-28T23:50:50.586Z,47
2022-07-28T23:52:50.720Z,47
2022-07-28T23:54:50.542Z,47
2022-07-28T23:56:50.587Z,47
2022-07-28T23:58:50.386Z,47
